Weather at Split Airport

Public forecast

Using degrees Celsius for public forecast. Weather courtesy of forecast.io.

Current aviation weather report (METAR) for Split Airport

Report is more than 6 hours old.

2022/11/14 15:30 (retrieved 2 years ago)

LDSP 141530Z 30003KT 270V340 9999 FEW018 BKN060 16/14 Q1020 TEMPO RA

Aviation forecast (TAF) for Split Airport

Forecast is more than 12 hours old.

2023/02/22 18:27 (retrieved 1 year ago)

TAF LDSP 221725Z 2218/2318 31008KT CAVOK TX14/2312Z TN07/2305Z BECMG 2311/2313 23007KT BECMG 2314/2316 VRB02KT